Time,TemperatureF,DewpointF,PressureIn,WindDirection,WindDirectionDegrees,WindSpeedMPH,WindSpeedGustMPH,Humidity,HourlyPrecipIn,Conditions,Clouds,dailyrainin,SoftwareType,DateUTC
2013-01-03 00:03:00,7.0,1.0,-100.00,North,5,1.0,3.0,76,0.00,,,-99.99,,2013-01-03 05:03:00,
2013-01-03 00:12:00,7.0,1.0,-100.00,North,5,2.0,3.0,77,0.00,,,-99.99,,2013-01-03 05:12:00,
2013-01-03 00:23:00,7.0,1.0,-100.00,North,5,3.0,4.0,78,0.00,,,-99.99,,2013-01-03 05:23:00,
2013-01-03 00:33:00,7.0,2.0,-100.00,North,5,4.0,6.0,79,0.00,,,-99.99,,2013-01-03 05:33:00,
2013-01-03 00:42:00,7.0,1.0,-100.00,North,5,5.0,6.0,78,0.00,,,-99.99,,2013-01-03 05:42:00,
2013-01-03 00:52:00,6.0,1.0,-100.00,North,5,4.0,5.0,79,0.00,,,-99.99,,2013-01-03 05:52:00,
2013-01-03 01:02:00,6.0,1.0,-100.00,North,5,4.0,6.0,79,0.00,,,-99.99,,2013-01-03 06:02:00,
2013-01-03 01:12:00,8.0,2.0,-100.00,North,5,4.0,6.0,75,0.00,,,-99.99,,2013-01-03 06:12:00,
2013-01-03 01:22:00,8.0,2.0,-100.00,North,5,4.0,6.0,74,0.00,,,-99.99,,2013-01-03 06:22:00,
2013-01-03 01:33:00,9.0,2.0,-100.00,North,5,5.0,7.0,72,0.00,,,-99.99,,2013-01-03 06:33:00,
2013-01-03 01:42:00,9.0,2.0,-100.00,North,5,5.0,7.0,72,0.00,,,-99.99,,2013-01-03 06:42:00,
2013-01-03 01:52:00,9.0,2.0,-100.00,North,5,5.0,7.0,71,0.00,,,-99.99,,2013-01-03 06:52:00,
2013-01-03 02:02:00,8.0,1.0,-100.00,North,5,4.0,7.0,73,0.00,,,-99.99,,2013-01-03 07:02:00,
2013-01-03 02:12:00,8.0,1.0,-100.00,North,5,4.0,6.0,73,0.00,,,-99.99,,2013-01-03 07:12:00,
2013-01-03 02:22:00,7.0,1.0,-100.00,North,5,4.0,6.0,73,0.00,,,-99.99,,2013-01-03 07:22:00,
2013-01-03 02:33:00,7.0,1.0,-100.00,North,5,4.0,6.0,73,0.00,,,-99.99,,2013-01-03 07:33:00,
2013-01-03 02:42:00,7.0,0.0,-100.00,North,5,4.0,6.0,72,0.00,,,-99.99,,2013-01-03 07:42:00,
2013-01-03 02:52:00,7.0,0.0,-100.00,North,5,4.0,6.0,71,0.00,,,-99.99,,2013-01-03 07:52:00,
2013-01-03 03:02:00,7.0,0.0,-100.00,North,5,4.0,6.0,73,0.00,,,-99.99,,2013-01-03 08:02:00,
2013-01-03 03:12:00,7.0,0.0,-100.00,North,5,3.0,6.0,72,0.00,,,-99.99,,2013-01-03 08:12:00,
2013-01-03 03:22:00,7.0,0.0,-100.00,North,5,4.0,6.0,72,0.00,,,-99.99,,2013-01-03 08:22:00,
2013-01-03 03:33:00,8.0,0.0,-100.00,North,5,4.0,7.0,70,0.00,,,-99.99,,2013-01-03 08:33:00,
2013-01-03 03:42:00,8.0,0.0,-100.00,North,5,4.0,7.0,69,0.00,,,-99.99,,2013-01-03 08:42:00,
2013-01-03 03:53:00,8.0,0.0,-100.00,North,5,4.0,6.0,69,0.00,,,-99.99,,2013-01-03 08:53:00,
2013-01-03 04:03:00,9.0,1.0,-100.00,North,5,5.0,7.0,68,0.00,,,-99.99,,2013-01-03 09:03:00,
2013-01-03 04:12:00,9.0,0.0,-100.00,North,5,6.0,9.0,66,0.00,,,-99.99,,2013-01-03 09:12:00,
2013-01-03 04:22:00,9.0,0.0,-100.00,North,5,6.0,8.0,67,0.00,,,-99.99,,2013-01-03 09:22:00,
2013-01-03 04:33:00,7.0,-1.0,-100.00,North,5,6.0,8.0,69,0.00,,,-99.99,,2013-01-03 09:33:00,
2013-01-03 04:43:00,7.0,0.0,-100.00,North,5,6.0,7.0,70,0.00,,,-99.99,,2013-01-03 09:43:00,
2013-01-03 04:52:00,7.0,0.0,-100.00,North,5,6.0,8.0,71,0.00,,,-99.99,,2013-01-03 09:52:00,
2013-01-03 05:02:00,8.0,0.0,-100.00,North,5,6.0,9.0,70,0.00,,,-99.99,,2013-01-03 10:02:00,
2013-01-03 05:12:00,8.0,1.0,-100.00,North,5,6.0,7.0,71,0.00,,,-99.99,,2013-01-03 10:12:00,
2013-01-03 05:22:00,8.0,1.0,-100.00,North,5,6.0,7.0,71,0.00,,,-99.99,,2013-01-03 10:22:00,
2013-01-03 05:33:00,10.0,2.0,-100.00,North,5,6.0,9.0,69,0.00,,,-99.99,,2013-01-03 10:33:00,
2013-01-03 05:42:00,10.0,2.0,-100.00,North,5,6.0,8.0,70,0.00,,,-99.99,,2013-01-03 10:42:00,
2013-01-03 05:52:00,10.0,2.0,-100.00,North,5,6.0,9.0,69,0.00,,,-99.99,,2013-01-03 10:52:00,
2013-01-03 06:02:00,10.0,2.0,-100.00,North,5,7.0,9.0,69,0.00,,,-99.99,,2013-01-03 11:02:00,
2013-01-03 06:12:00,11.0,2.0,-100.00,North,5,7.0,10.0,68,0.00,,,-99.99,,2013-01-03 11:12:00,
2013-01-03 06:23:00,11.0,3.0,-100.00,North,5,7.0,12.0,68,0.00,,,-99.99,,2013-01-03 11:23:00,
2013-01-03 06:33:00,10.0,2.0,-100.00,North,5,6.0,11.0,68,0.00,,,-99.99,,2013-01-03 11:33:00,
2013-01-03 06:43:00,10.0,2.0,-100.00,North,5,7.0,9.0,68,0.00,,,-99.99,,2013-01-03 11:43:00,
2013-01-03 06:53:00,10.0,2.0,-100.00,North,5,7.0,9.0,68,0.00,,,-99.99,,2013-01-03 11:53:00,
2013-01-03 07:03:00,10.0,2.0,-100.00,North,5,7.0,11.0,67,0.00,,,-99.99,,2013-01-03 12:03:00,
2013-01-03 07:12:00,10.0,2.0,-100.00,North,5,7.0,11.0,67,0.00,,,-99.99,,2013-01-03 12:12:00,
2013-01-03 07:22:00,11.0,2.0,-100.00,North,5,7.0,12.0,66,0.00,,,-99.99,,2013-01-03 12:22:00,
2013-01-03 07:33:00,11.0,2.0,-100.00,North,5,8.0,12.0,66,0.00,,,-99.99,,2013-01-03 12:33:00,
2013-01-03 07:42:00,11.0,2.0,-100.00,North,5,8.0,12.0,66,0.00,,,-99.99,,2013-01-03 12:42:00,
2013-01-03 07:53:00,11.0,2.0,-100.00,North,5,7.0,12.0,66,0.00,,,-99.99,,2013-01-03 12:53:00,
2013-01-03 08:02:00,11.0,2.0,-100.00,North,5,9.0,12.0,66,0.00,,,-99.99,,2013-01-03 13:02:00,
2013-01-03 08:13:00,11.0,3.0,-100.00,North,5,7.0,12.0,67,0.00,,,-99.99,,2013-01-03 13:13:00,
2013-01-03 08:22:00,12.0,3.0,-100.00,North,5,7.0,12.0,67,0.00,,,-99.99,,2013-01-03 13:22:00,
2013-01-03 08:33:00,13.0,4.0,-100.00,North,5,9.0,12.0,65,0.00,,,-99.99,,2013-01-03 13:33:00,
2013-01-03 08:42:00,13.0,4.0,-100.00,North,5,9.0,12.0,64,0.00,,,-99.99,,2013-01-03 13:42:00,
2013-01-03 08:52:00,14.0,4.0,-100.00,North,5,8.0,12.0,64,0.00,,,-99.99,,2013-01-03 13:52:00,
2013-01-03 09:03:00,15.0,4.0,-100.00,North,5,10.0,13.0,62,0.00,,,-99.99,,2013-01-03 14:03:00,
2013-01-03 09:12:00,15.0,5.0,-100.00,North,5,9.0,12.0,63,0.00,,,-99.99,,2013-01-03 14:12:00,
2013-01-03 09:23:00,16.0,5.0,-100.00,North,5,9.0,12.0,62,0.00,,,-99.99,,2013-01-03 14:23:00,
2013-01-03 09:33:00,16.0,5.0,-100.00,North,5,9.0,14.0,60,0.00,,,-99.99,,2013-01-03 14:33:00,
2013-01-03 09:42:00,16.0,5.0,-100.00,North,5,7.0,14.0,60,0.00,,,-99.99,,2013-01-03 14:42:00,
2013-01-03 09:53:00,17.0,5.0,-100.00,North,5,7.0,11.0,59,0.00,,,-99.99,,2013-01-03 14:53:00,
2013-01-03 10:03:00,19.0,6.0,-100.00,North,5,7.0,11.0,55,0.00,,,-99.99,,2013-01-03 15:03:00,
2013-01-03 10:12:00,20.0,7.0,-100.00,North,5,7.0,11.0,55,0.00,,,-99.99,,2013-01-03 15:12:00,
2013-01-03 10:23:00,21.0,7.0,-100.00,North,5,10.0,16.0,52,0.00,,,-99.99,,2013-01-03 15:23:00,
2013-01-03 10:33:00,21.0,7.0,-100.00,North,5,10.0,14.0,52,0.00,,,-99.99,,2013-01-03 15:33:00,
2013-01-03 10:43:00,22.0,7.0,-100.00,North,5,12.0,17.0,53,0.00,,,-99.99,,2013-01-03 15:43:00,
2013-01-03 10:53:00,22.0,7.0,-100.00,North,5,11.0,16.0,53,0.00,,,-99.99,,2013-01-03 15:53:00,
2013-01-03 11:03:00,22.0,8.0,-100.00,North,5,12.0,16.0,54,0.00,,,-99.99,,2013-01-03 16:03:00,
2013-01-03 11:12:00,22.0,8.0,-100.00,North,5,11.0,16.0,54,0.00,,,-99.99,,2013-01-03 16:12:00,
2013-01-03 11:22:00,22.0,8.0,-100.00,North,5,12.0,16.0,55,0.00,,,-99.99,,2013-01-03 16:22:00,
2013-01-03 11:33:00,22.0,8.0,-100.00,North,5,14.0,20.0,55,0.00,,,-99.99,,2013-01-03 16:33:00,
2013-01-03 11:43:00,22.0,9.0,-100.00,North,5,11.0,19.0,57,0.00,,,-99.99,,2013-01-03 16:43:00,
2013-01-03 11:52:00,22.0,10.0,-100.00,North,5,11.0,14.0,57,0.00,,,-99.99,,2013-01-03 16:52:00,
2013-01-03 12:03:00,23.0,11.0,-100.00,North,5,11.0,16.0,59,0.00,,,-99.99,,2013-01-03 17:03:00,
2013-01-03 12:12:00,23.0,11.0,-100.00,North,5,12.0,17.0,60,0.00,,,-99.99,,2013-01-03 17:12:00,
2013-01-03 12:23:00,23.0,12.0,-100.00,North,5,9.0,14.0,62,0.00,,,-99.99,,2013-01-03 17:23:00,
2013-01-03 12:33:00,24.0,14.0,-100.00,North,5,11.0,16.0,66,0.00,,,-99.99,,2013-01-03 17:33:00,
2013-01-03 12:43:00,24.0,14.0,-100.00,North,5,11.0,17.0,66,0.00,,,-99.99,,2013-01-03 17:43:00,
2013-01-03 12:53:00,24.0,14.0,-100.00,North,5,11.0,19.0,66,0.00,,,-99.99,,2013-01-03 17:53:00,
2013-01-03 13:03:00,24.0,15.0,-100.00,North,5,10.0,16.0,68,0.00,,,-99.99,,2013-01-03 18:03:00,
2013-01-03 13:13:00,24.0,15.0,-100.00,North,5,12.0,17.0,68,0.00,,,-99.99,,2013-01-03 18:13:00,
2013-01-03 13:22:00,24.0,16.0,-100.00,North,5,10.0,16.0,69,0.00,,,-99.99,,2013-01-03 18:22:00,
2013-01-03 13:33:00,25.0,16.0,-100.00,North,5,10.0,16.0,70,0.00,,,-99.99,,2013-01-03 18:33:00,
2013-01-03 13:42:00,25.0,17.0,-100.00,North,5,12.0,19.0,71,0.00,,,-99.99,,2013-01-03 18:42:00,
2013-01-03 13:53:00,25.0,18.0,-100.00,North,5,12.0,16.0,71,0.00,,,-99.99,,2013-01-03 18:53:00,
2013-01-03 14:03:00,26.0,19.0,-100.00,North,5,9.0,16.0,75,0.00,,,-99.99,,2013-01-03 19:03:00,
2013-01-03 14:12:00,26.0,20.0,-100.00,North,5,12.0,19.0,77,0.00,,,-99.99,,2013-01-03 19:12:00,
2013-01-03 14:56:00,26.0,20.0,-100.00,North,5,12.0,18.0,79,0.00,,,-99.99,,2013-01-03 19:56:00,
2013-01-03 15:03:00,26.0,21.0,-100.00,North,5,11.0,21.0,80,0.00,,,-99.99,,2013-01-03 20:03:00,
2013-01-03 15:12:00,26.0,21.0,-100.00,North,5,12.0,18.0,80,0.00,,,-99.99,,2013-01-03 20:12:00,
2013-01-03 15:22:00,26.0,21.0,-100.00,North,5,7.0,15.0,80,0.00,,,-99.99,,2013-01-03 20:22:00,
2013-01-03 15:33:00,27.0,21.0,-100.00,North,5,10.0,16.0,80,0.00,,,-99.99,,2013-01-03 20:33:00,
2013-01-03 15:42:00,27.0,22.0,-100.00,North,5,10.0,17.0,79,0.00,,,-99.99,,2013-01-03 20:42:00,
2013-01-03 15:53:00,27.0,21.0,-100.00,North,5,12.0,16.0,77,0.00,,,-99.99,,2013-01-03 20:53:00,
2013-01-03 16:02:00,27.0,21.0,-100.00,North,5,11.0,16.0,77,0.00,,,-99.99,,2013-01-03 21:02:00,
2013-01-03 16:12:00,27.0,21.0,-100.00,North,5,13.0,18.0,76,0.00,,,-99.99,,2013-01-03 21:12:00,
2013-01-03 16:23:00,27.0,21.0,-100.00,North,5,12.0,18.0,76,0.00,,,-99.99,,2013-01-03 21:23:00,
2013-01-03 16:37:00,27.0,21.0,-100.00,North,5,12.0,17.0,76,0.00,,,-99.99,,2013-01-03 21:37:00,
2013-01-03 16:48:00,27.0,21.0,-100.00,North,5,11.0,18.0,76,0.00,,,-99.99,,2013-01-03 21:48:00,
2013-01-03 17:03:00,27.0,20.0,-100.00,North,5,9.0,15.0,76,0.00,,,-99.99,,2013-01-03 22:03:00,
2013-01-03 17:12:00,27.0,20.0,-100.00,North,5,11.0,17.0,77,0.00,,,-99.99,,2013-01-03 22:12:00,
2013-01-03 17:22:00,27.0,20.0,-100.00,North,5,10.0,17.0,77,0.00,,,-99.99,,2013-01-03 22:22:00,
2013-01-03 17:33:00,27.0,20.0,-100.00,North,5,11.0,16.0,77,0.00,,,-99.99,,2013-01-03 22:33:00,
2013-01-03 17:42:00,27.0,21.0,-100.00,North,5,11.0,20.0,77,0.00,,,-99.99,,2013-01-03 22:42:00,
2013-01-03 17:52:00,27.0,21.0,-100.00,North,5,12.0,19.0,76,0.00,,,-99.99,,2013-01-03 22:52:00,
2013-01-03 18:03:00,27.0,21.0,-100.00,North,5,11.0,16.0,76,0.00,,,-99.99,,2013-01-03 23:03:00,
2013-01-03 18:12:00,27.0,21.0,-100.00,North,5,12.0,17.0,76,0.00,,,-99.99,,2013-01-03 23:12:00,
2013-01-03 18:22:00,27.0,21.0,-100.00,North,5,10.0,18.0,76,0.00,,,-99.99,,2013-01-03 23:22:00,
2013-01-03 18:33:00,27.0,21.0,-100.00,North,5,12.0,18.0,75,0.00,,,-99.99,,2013-01-03 23:33:00,
2013-01-03 18:43:00,27.0,21.0,-100.00,North,5,11.0,14.0,75,0.00,,,-99.99,,2013-01-03 23:43:00,
2013-01-03 18:52:00,27.0,21.0,-100.00,North,5,7.0,14.0,75,0.00,,,-99.99,,2013-01-03 23:52:00,
2013-01-03 19:03:00,27.0,21.0,-100.00,North,5,10.0,17.0,76,0.00,,,-99.99,,2013-01-04 00:03:00,
2013-01-03 19:12:00,27.0,21.0,-100.00,North,5,9.0,16.0,76,0.00,,,-99.99,,2013-01-04 00:12:00,
2013-01-03 19:22:00,27.0,21.0,-100.00,North,5,7.0,14.0,77,0.00,,,-99.99,,2013-01-04 00:22:00,
2013-01-03 19:32:00,27.0,21.0,-100.00,North,5,9.0,13.0,78,0.00,,,-99.99,,2013-01-04 00:32:00,
2013-01-03 19:42:00,27.0,21.0,-100.00,North,5,9.0,13.0,78,0.00,,,-99.99,,2013-01-04 00:42:00,
2013-01-03 19:52:00,27.0,22.0,-100.00,North,5,7.0,14.0,78,0.00,,,-99.99,,2013-01-04 00:52:00,
2013-01-03 20:02:00,27.0,22.0,-100.00,North,5,9.0,15.0,79,0.00,,,-99.99,,2013-01-04 01:02:00,
2013-01-03 20:12:00,27.0,22.0,-100.00,North,5,8.0,15.0,79,0.00,,,-99.99,,2013-01-04 01:12:00,
2013-01-03 20:22:00,28.0,22.0,-100.00,North,5,10.0,12.0,78,0.00,,,-99.99,,2013-01-04 01:22:00,
2013-01-03 20:33:00,28.0,22.0,-100.00,North,5,9.0,12.0,78,0.00,,,-99.99,,2013-01-04 01:33:00,
2013-01-03 20:42:00,28.0,22.0,-100.00,North,5,10.0,16.0,77,0.00,,,-99.99,,2013-01-04 01:42:00,
2013-01-03 20:52:00,28.0,22.0,-100.00,North,5,10.0,14.0,76,0.00,,,-99.99,,2013-01-04 01:52:00,
2013-01-03 21:02:00,28.0,22.0,-100.00,North,5,10.0,13.0,76,0.00,,,-99.99,,2013-01-04 02:02:00,
2013-01-03 21:12:00,28.0,22.0,-100.00,North,5,9.0,14.0,77,0.00,,,-99.99,,2013-01-04 02:12:00,
2013-01-03 21:22:00,28.0,22.0,-100.00,North,5,12.0,17.0,76,0.00,,,-99.99,,2013-01-04 02:22:00,
2013-01-03 21:33:00,28.0,21.0,-100.00,North,5,9.0,18.0,76,0.00,,,-99.99,,2013-01-04 02:33:00,
2013-01-03 21:42:00,28.0,21.0,-100.00,North,5,9.0,19.0,76,0.00,,,-99.99,,2013-01-04 02:42:00,
2013-01-03 21:52:00,28.0,21.0,-100.00,North,5,12.0,19.0,74,0.00,,,-99.99,,2013-01-04 02:52:00,
2013-01-03 22:03:00,28.0,21.0,-100.00,North,5,11.0,16.0,76,0.55,,,-99.99,,2013-01-04 03:03:00,
2013-01-03 22:12:00,28.0,21.0,-100.00,North,5,9.0,15.0,76,0.00,,,-99.99,,2013-01-04 03:12:00,
2013-01-03 22:22:00,28.0,21.0,-100.00,North,5,8.0,13.0,76,0.00,,,-99.99,,2013-01-04 03:22:00,
2013-01-03 22:33:00,28.0,21.0,-100.00,North,5,7.0,12.0,74,0.00,,,-99.99,,2013-01-04 03:33:00,
2013-01-03 22:42:00,28.0,21.0,-100.00,North,5,6.0,12.0,74,0.00,,,-99.99,,2013-01-04 03:42:00,
2013-01-03 22:52:00,28.0,20.0,-100.00,North,5,9.0,12.0,72,0.00,,,-99.99,,2013-01-04 03:52:00,
2013-01-03 23:02:00,28.0,20.0,-100.00,North,5,9.0,13.0,71,0.00,,,-99.99,,2013-01-04 04:02:00,
2013-01-03 23:12:00,28.0,20.0,-100.00,North,5,9.0,14.0,71,0.00,,,-99.99,,2013-01-04 04:12:00,
2013-01-03 23:22:00,28.0,21.0,-100.00,North,5,9.0,16.0,74,0.00,,,-99.99,,2013-01-04 04:22:00,
2013-01-03 23:32:00,28.0,21.0,-100.00,North,5,9.0,12.0,76,0.00,,,-99.99,,2013-01-04 04:32:00,
2013-01-03 23:42:00,28.0,21.0,-100.00,North,5,9.0,12.0,75,0.00,,,-99.99,,2013-01-04 04:42:00,
2013-01-03 23:52:00,28.0,20.0,-100.00,North,5,11.0,14.0,73,0.00,,,-99.99,,2013-01-04 04:52:00,